sensor_id;sensor_type;location;lat;lon;timestamp;pressure;altitude;pressure_sealevel;temperature;humidity
56420;BME280;42323;52.170;7.538;2023-02-01T00:00:26;101358.59;;;4.02;80.49
56420;BME280;42323;52.170;7.538;2023-02-01T00:02:53;101372.81;;;3.96;80.49
56420;BME280;42323;52.170;7.538;2023-02-01T00:05:19;101373.22;;;4.03;79.79
56420;BME280;42323;52.170;7.538;2023-02-01T00:07:49;101365.22;;;4.06;79.65
56420;BME280;42323;52.170;7.538;2023-02-01T00:10:19;101358.13;;;4.08;79.68
56420;BME280;42323;52.170;7.538;2023-02-01T00:12:46;101356.34;;;4.09;79.29
56420;BME280;42323;52.170;7.538;2023-02-01T00:15:13;101371.69;;;4.12;78.79
56420;BME280;42323;52.170;7.538;2023-02-01T00:17:39;101362.97;;;4.24;78.47
56420;BME280;42323;52.170;7.538;2023-02-01T00:20:06;101365.44;;;4.14;78.52
56420;BME280;42323;52.170;7.538;2023-02-01T00:22:33;101355.19;;;4.24;78.25
56420;BME280;42323;52.170;7.538;2023-02-01T00:24:59;101350.25;;;4.32;78.55
56420;BME280;42323;52.170;7.538;2023-02-01T00:27:26;101337.41;;;4.19;78.53
56420;BME280;42323;52.170;7.538;2023-02-01T00:29:54;101338.69;;;4.25;78.27
56420;BME280;42323;52.170;7.538;2023-02-01T00:32:21;101332.22;;;4.19;78.47
56420;BME280;42323;52.170;7.538;2023-02-01T00:34:48;101342.59;;;4.19;78.54
56420;BME280;42323;52.170;7.538;2023-02-01T00:37:14;101320.28;;;4.17;78.99
56420;BME280;42323;52.170;7.538;2023-02-01T00:39:41;101331.97;;;4.22;78.79
56420;BME280;42323;52.170;7.538;2023-02-01T00:42:07;101324.66;;;4.16;78.83
56420;BME280;42323;52.170;7.538;2023-02-01T00:44:34;101321.34;;;4.14;79.09
56420;BME280;42323;52.170;7.538;2023-02-01T00:47:01;101331.03;;;4.12;79.26
56420;BME280;42323;52.170;7.538;2023-02-01T00:49:28;101312.50;;;4.06;79.28
56420;BME280;42323;52.170;7.538;2023-02-01T00:51:55;101307.31;;;4.06;79.90
56420;BME280;42323;52.170;7.538;2023-02-01T00:54:21;101309.09;;;4.16;79.97
56420;BME280;42323;52.170;7.538;2023-02-01T00:56:48;101314.41;;;4.26;79.22
56420;BME280;42323;52.170;7.538;2023-02-01T00:59:14;101319.81;;;4.23;79.41
56420;BME280;42323;52.170;7.538;2023-02-01T01:01:41;101311.94;;;4.24;79.90
56420;BME280;42323;52.170;7.538;2023-02-01T01:04:08;101316.16;;;4.25;80.35
56420;BME280;42323;52.170;7.538;2023-02-01T01:06:34;101302.38;;;4.25;80.01
56420;BME280;42323;52.170;7.538;2023-02-01T01:09:04;101303.78;;;4.29;79.27
56420;BME280;42323;52.170;7.538;2023-02-01T01:11:35;101309.69;;;4.31;79.35
56420;BME280;42323;52.170;7.538;2023-02-01T01:14:02;101316.06;;;4.49;79.06
56420;BME280;42323;52.170;7.538;2023-02-01T01:16:31;101318.75;;;4.48;78.61
56420;BME280;42323;52.170;7.538;2023-02-01T01:18:58;101338.19;;;4.65;77.98
56420;BME280;42323;52.170;7.538;2023-02-01T01:21:25;101330.31;;;4.66;78.15
56420;BME280;42323;52.170;7.538;2023-02-01T01:23:52;101329.22;;;4.69;77.98
56420;BME280;42323;52.170;7.538;2023-02-01T01:26:24;101339.16;;;4.64;78.34
56420;BME280;42323;52.170;7.538;2023-02-01T01:28:51;101334.56;;;4.67;78.45
56420;BME280;42323;52.170;7.538;2023-02-01T01:31:19;101348.69;;;4.74;77.83
56420;BME280;42323;52.170;7.538;2023-02-01T01:33:53;101318.97;;;4.67;77.85
56420;BME280;42323;52.170;7.538;2023-02-01T01:36:20;101307.16;;;4.74;78.02
56420;BME280;42323;52.170;7.538;2023-02-01T01:38:47;101318.63;;;4.72;78.09
56420;BME280;42323;52.170;7.538;2023-02-01T01:41:17;101311.97;;;4.79;78.42
56420;BME280;42323;52.170;7.538;2023-02-01T01:43:51;101307.72;;;4.78;77.97
56420;BME280;42323;52.170;7.538;2023-02-01T01:46:20;101305.34;;;4.86;78.29
56420;BME280;42323;52.170;7.538;2023-02-01T01:48:50;101304.78;;;4.83;78.18
56420;BME280;42323;52.170;7.538;2023-02-01T01:51:21;101291.94;;;4.70;78.42
56420;BME280;42323;52.170;7.538;2023-02-01T01:54:02;101297.44;;;4.88;78.47
56420;BME280;42323;52.170;7.538;2023-02-01T01:56:33;101286.38;;;4.86;78.10
56420;BME280;42323;52.170;7.538;2023-02-01T01:59:01;101300.75;;;4.90;78.32
56420;BME280;42323;52.170;7.538;2023-02-01T02:01:28;101288.00;;;4.87;78.45
56420;BME280;42323;52.170;7.538;2023-02-01T02:03:55;101283.19;;;4.82;77.46
56420;BME280;42323;52.170;7.538;2023-02-01T02:08:58;101258.13;;;4.60;78.64
56420;BME280;42323;52.170;7.538;2023-02-01T02:11:24;101245.13;;;4.60;77.81
56420;BME280;42323;52.170;7.538;2023-02-01T02:13:54;101276.59;;;4.78;78.15
56420;BME280;42323;52.170;7.538;2023-02-01T02:16:31;101273.53;;;4.73;78.31
56420;BME280;42323;52.170;7.538;2023-02-01T02:24:43;101245.28;;;4.59;78.64
56420;BME280;42323;52.170;7.538;2023-02-01T02:41:20;101247.72;;;4.60;78.73
56420;BME280;42323;52.170;7.538;2023-02-01T02:44:21;101235.94;;;4.56;78.94
56420;BME280;42323;52.170;7.538;2023-02-01T02:47:16;101240.28;;;4.67;78.36
56420;BME280;42323;52.170;7.538;2023-02-01T02:50:40;101236.63;;;4.69;78.54
56420;BME280;42323;52.170;7.538;2023-02-01T02:56:15;101217.66;;;4.58;77.66
56420;BME280;42323;52.170;7.538;2023-02-01T02:59:03;101234.63;;;4.62;78.40
56420;BME280;42323;52.170;7.538;2023-02-01T03:01:49;101237.13;;;4.63;78.67
56420;BME280;42323;52.170;7.538;2023-02-01T03:04:34;101226.66;;;4.53;78.41
56420;BME280;42323;52.170;7.538;2023-02-01T03:13:07;101221.25;;;4.45;79.02
56420;BME280;42323;52.170;7.538;2023-02-01T03:15:39;101191.31;;;4.41;78.71
56420;BME280;42323;52.170;7.538;2023-02-01T03:21:38;101192.44;;;4.48;79.07
56420;BME280;42323;52.170;7.538;2023-02-01T03:24:16;101182.56;;;4.42;79.05
56420;BME280;42323;52.170;7.538;2023-02-01T03:26:50;101183.47;;;4.52;78.82
56420;BME280;42323;52.170;7.538;2023-02-01T03:29:29;101170.75;;;4.49;79.13
56420;BME280;42323;52.170;7.538;2023-02-01T03:31:58;101191.00;;;4.56;78.39
56420;BME280;42323;52.170;7.538;2023-02-01T03:34:25;101182.41;;;4.55;78.56
56420;BME280;42323;52.170;7.538;2023-02-01T03:36:58;101176.88;;;4.48;78.45
56420;BME280;42323;52.170;7.538;2023-02-01T03:39:34;101186.66;;;4.56;77.86
56420;BME280;42323;52.170;7.538;2023-02-01T03:42:12;101180.06;;;4.52;78.59
56420;BME280;42323;52.170;7.538;2023-02-01T03:45:10;101185.38;;;4.50;78.67
56420;BME280;42323;52.170;7.538;2023-02-01T03:47:45;101169.00;;;4.50;78.59
56420;BME280;42323;52.170;7.538;2023-02-01T03:50:17;101193.06;;;4.73;77.89
56420;BME280;42323;52.170;7.538;2023-02-01T03:52:50;101180.53;;;4.78;77.62
56420;BME280;42323;52.170;7.538;2023-02-01T03:55:20;101166.28;;;4.72;77.63
56420;BME280;42323;52.170;7.538;2023-02-01T03:57:53;101190.16;;;4.87;77.96
56420;BME280;42323;52.170;7.538;2023-02-01T04:00:24;101174.91;;;4.73;77.69
56420;BME280;42323;52.170;7.538;2023-02-01T04:02:52;101184.75;;;4.90;77.87
56420;BME280;42323;52.170;7.538;2023-02-01T04:05:19;101193.72;;;4.86;77.97
56420;BME280;42323;52.170;7.538;2023-02-01T04:07:46;101181.34;;;4.78;78.56
56420;BME280;42323;52.170;7.538;2023-02-01T04:10:12;101176.66;;;4.84;78.03
56420;BME280;42323;52.170;7.538;2023-02-01T04:12:39;101181.34;;;4.78;78.69
56420;BME280;42323;52.170;7.538;2023-02-01T04:15:07;101178.53;;;4.82;78.82
56420;BME280;42323;52.170;7.538;2023-02-01T04:17:34;101165.91;;;4.77;78.77
56420;BME280;42323;52.170;7.538;2023-02-01T04:20:00;101153.91;;;4.76;78.99
56420;BME280;42323;52.170;7.538;2023-02-01T04:22:27;101164.72;;;4.81;79.44
56420;BME280;42323;52.170;7.538;2023-02-01T04:24:54;101164.75;;;4.70;80.01
56420;BME280;42323;52.170;7.538;2023-02-01T04:27:21;101150.97;;;4.69;80.62
56420;BME280;42323;52.170;7.538;2023-02-01T04:29:47;101160.25;;;4.51;80.95
56420;BME280;42323;52.170;7.538;2023-02-01T04:32:16;101169.75;;;4.62;81.34
56420;BME280;42323;52.170;7.538;2023-02-01T04:34:43;101159.19;;;4.53;81.71
56420;BME280;42323;52.170;7.538;2023-02-01T04:37:09;101154.09;;;4.52;82.36
56420;BME280;42323;52.170;7.538;2023-02-01T04:39:36;101157.66;;;4.51;82.42
56420;BME280;42323;52.170;7.538;2023-02-01T04:42:02;101153.41;;;4.50;81.99
56420;BME280;42323;52.170;7.538;2023-02-01T04:44:29;101131.28;;;4.35;82.91
56420;BME280;42323;52.170;7.538;2023-02-01T04:46:55;101172.69;;;4.36;82.82
56420;BME280;42323;52.170;7.538;2023-02-01T04:49:22;101147.88;;;4.43;81.89
56420;BME280;42323;52.170;7.538;2023-02-01T04:51:48;101155.06;;;4.51;81.91
56420;BME280;42323;52.170;7.538;2023-02-01T04:54:15;101169.59;;;4.42;82.71
56420;BME280;42323;52.170;7.538;2023-02-01T04:56:41;101137.19;;;4.37;82.82
56420;BME280;42323;52.170;7.538;2023-02-01T04:59:10;101149.72;;;4.52;82.01
56420;BME280;42323;52.170;7.538;2023-02-01T05:01:37;101127.25;;;4.42;82.38
56420;BME280;42323;52.170;7.538;2023-02-01T05:04:04;101150.69;;;4.51;82.25
56420;BME280;42323;52.170;7.538;2023-02-01T05:06:30;101152.09;;;4.56;82.38
56420;BME280;42323;52.170;7.538;2023-02-01T05:08:56;101138.88;;;4.59;82.02
56420;BME280;42323;52.170;7.538;2023-02-01T05:11:23;101132.66;;;4.50;82.06
56420;BME280;42323;52.170;7.538;2023-02-01T05:14:08;101145.75;;;4.48;82.56
56420;BME280;42323;52.170;7.538;2023-02-01T05:16:36;101160.25;;;4.51;82.43
56420;BME280;42323;52.170;7.538;2023-02-01T05:19:03;101172.34;;;4.62;81.42
56420;BME280;42323;52.170;7.538;2023-02-01T05:21:29;101132.50;;;4.63;81.71
56420;BME280;42323;52.170;7.538;2023-02-01T05:23:56;101142.06;;;4.62;82.61
56420;BME280;42323;52.170;7.538;2023-02-01T05:26:47;101131.94;;;4.48;83.38
56420;BME280;42323;52.170;7.538;2023-02-01T05:29:14;101129.72;;;4.43;83.31
56420;BME280;42323;52.170;7.538;2023-02-01T05:31:44;101126.91;;;4.46;83.14
56420;BME280;42323;52.170;7.538;2023-02-01T05:34:11;101123.59;;;4.44;83.37
56420;BME280;42323;52.170;7.538;2023-02-01T05:36:38;101124.97;;;4.48;83.52
56420;BME280;42323;52.170;7.538;2023-02-01T05:39:05;101133.03;;;4.45;83.64
56420;BME280;42323;52.170;7.538;2023-02-01T05:41:31;101127.94;;;4.44;84.04
56420;BME280;42323;52.170;7.538;2023-02-01T05:43:58;101110.91;;;4.30;84.31
56420;BME280;42323;52.170;7.538;2023-02-01T05:46:24;101119.84;;;4.37;83.66
56420;BME280;42323;52.170;7.538;2023-02-01T05:48:51;101104.03;;;4.40;83.63
56420;BME280;42323;52.170;7.538;2023-02-01T05:51:17;101087.19;;;4.35;83.32
56420;BME280;42323;52.170;7.538;2023-02-01T05:53:44;101126.97;;;4.56;82.92
56420;BME280;42323;52.170;7.538;2023-02-01T05:56:10;101091.75;;;4.42;82.61
56420;BME280;42323;52.170;7.538;2023-02-01T05:58:37;101088.13;;;4.45;83.13
56420;BME280;42323;52.170;7.538;2023-02-01T06:01:03;101111.16;;;4.59;82.45
56420;BME280;42323;52.170;7.538;2023-02-01T06:03:30;101112.66;;;4.62;81.54
56420;BME280;42323;52.170;7.538;2023-02-01T06:05:57;101105.88;;;4.70;81.80
56420;BME280;42323;52.170;7.538;2023-02-01T06:08:23;101128.69;;;4.67;81.65
56420;BME280;42323;52.170;7.538;2023-02-01T06:11:04;101122.34;;;4.60;82.22
56420;BME280;42323;52.170;7.538;2023-02-01T06:13:31;101139.63;;;4.70;81.46
56420;BME280;42323;52.170;7.538;2023-02-01T06:16:01;101154.28;;;4.71;81.38
56420;BME280;42323;52.170;7.538;2023-02-01T06:18:28;101139.97;;;4.77;80.85
56420;BME280;42323;52.170;7.538;2023-02-01T06:20:57;101160.56;;;4.90;80.34
56420;BME280;42323;52.170;7.538;2023-02-01T06:23:27;101152.75;;;4.90;80.34
56420;BME280;42323;52.170;7.538;2023-02-01T06:26:04;101163.91;;;5.01;79.88
56420;BME280;42323;52.170;7.538;2023-02-01T06:28:32;101163.78;;;5.03;79.69
56420;BME280;42323;52.170;7.538;2023-02-01T06:31:03;101153.41;;;5.03;79.18
56420;BME280;42323;52.170;7.538;2023-02-01T06:33:29;101185.19;;;5.16;78.48
56420;BME280;42323;52.170;7.538;2023-02-01T06:36:01;101163.78;;;5.24;78.28
56420;BME280;42323;52.170;7.538;2023-02-01T06:38:28;101168.53;;;5.19;78.53
56420;BME280;42323;52.170;7.538;2023-02-01T06:40:55;101174.81;;;5.16;78.74
56420;BME280;42323;52.170;7.538;2023-02-01T06:43:23;101177.44;;;5.26;78.60
56420;BME280;42323;52.170;7.538;2023-02-01T06:45:51;101176.53;;;5.27;78.43
56420;BME280;42323;52.170;7.538;2023-02-01T06:48:18;101173.84;;;5.17;78.11
56420;BME280;42323;52.170;7.538;2023-02-01T06:50:45;101167.53;;;5.31;78.17
56420;BME280;42323;52.170;7.538;2023-02-01T06:53:11;101168.34;;;5.32;77.94
56420;BME280;42323;52.170;7.538;2023-02-01T06:55:38;101159.41;;;5.24;78.00
56420;BME280;42323;52.170;7.538;2023-02-01T06:58:04;101171.19;;;5.28;78.22
56420;BME280;42323;52.170;7.538;2023-02-01T07:00:31;101172.00;;;5.29;77.85
56420;BME280;42323;52.170;7.538;2023-02-01T07:02:58;101190.63;;;5.34;77.88
56420;BME280;42323;52.170;7.538;2023-02-01T07:05:25;101179.56;;;5.32;78.10
56420;BME280;42323;52.170;7.538;2023-02-01T07:07:52;101170.88;;;5.22;78.90
56420;BME280;42323;52.170;7.538;2023-02-01T07:10:18;101201.28;;;5.31;77.91
56420;BME280;42323;52.170;7.538;2023-02-01T07:12:44;101176.00;;;5.12;78.86
56420;BME280;42323;52.170;7.538;2023-02-01T07:15:11;101200.59;;;5.29;78.64
56420;BME280;42323;52.170;7.538;2023-02-01T07:17:37;101193.75;;;5.28;78.23
56420;BME280;42323;52.170;7.538;2023-02-01T07:20:04;101194.44;;;5.30;78.43
56420;BME280;42323;52.170;7.538;2023-02-01T07:22:31;101194.13;;;5.23;79.07
56420;BME280;42323;52.170;7.538;2023-02-01T07:24:57;101205.16;;;5.37;78.13
56420;BME280;42323;52.170;7.538;2023-02-01T07:27:24;101191.78;;;5.20;78.64
56420;BME280;42323;52.170;7.538;2023-02-01T07:29:51;101208.81;;;5.34;78.64
56420;BME280;42323;52.170;7.538;2023-02-01T07:32:18;101215.50;;;5.27;79.12
56420;BME280;42323;52.170;7.538;2023-02-01T07:34:45;101193.31;;;5.23;78.15
56420;BME280;42323;52.170;7.538;2023-02-01T07:37:11;101211.22;;;5.26;79.08
56420;BME280;42323;52.170;7.538;2023-02-01T07:39:38;101220.22;;;5.43;78.35
56420;BME280;42323;52.170;7.538;2023-02-01T07:42:05;101205.16;;;5.37;78.65
56420;BME280;42323;52.170;7.538;2023-02-01T07:44:32;101203.44;;;5.26;79.43
56420;BME280;42323;52.170;7.538;2023-02-01T07:46:58;101202.69;;;5.14;80.39
56420;BME280;42323;52.170;7.538;2023-02-01T07:49:24;101205.28;;;5.14;80.11
56420;BME280;42323;52.170;7.538;2023-02-01T07:51:51;101225.16;;;5.25;80.42
56420;BME280;42323;52.170;7.538;2023-02-01T07:54:18;101223.09;;;5.19;79.83
56420;BME280;42323;52.170;7.538;2023-02-01T07:56:44;101214.34;;;5.20;80.25
56420;BME280;42323;52.170;7.538;2023-02-01T07:59:11;101216.56;;;5.24;80.49
56420;BME280;42323;52.170;7.538;2023-02-01T08:01:38;101215.16;;;5.20;81.10
56420;BME280;42323;52.170;7.538;2023-02-01T08:04:04;101218.00;;;5.17;81.12
56420;BME280;42323;52.170;7.538;2023-02-01T08:06:33;101225.41;;;5.22;80.50
56420;BME280;42323;52.170;7.538;2023-02-01T08:09:03;101221.59;;;5.26;80.36
56420;BME280;42323;52.170;7.538;2023-02-01T08:11:31;101220.97;;;5.34;79.40
56420;BME280;42323;52.170;7.538;2023-02-01T08:13:58;101233.97;;;5.54;78.62
56420;BME280;42323;52.170;7.538;2023-02-01T08:16:25;101233.97;;;5.54;78.62
56420;BME280;42323;52.170;7.538;2023-02-01T08:18:52;101192.41;;;5.34;78.97
56420;BME280;42323;52.170;7.538;2023-02-01T08:21:24;101219.59;;;5.50;78.62
56420;BME280;42323;52.170;7.538;2023-02-01T08:23:51;101236.88;;;5.61;77.45
56420;BME280;42323;52.170;7.538;2023-02-01T08:26:20;101231.84;;;5.69;77.24
56420;BME280;42323;52.170;7.538;2023-02-01T08:28:59;101236.22;;;5.69;77.46
56420;BME280;42323;52.170;7.538;2023-02-01T08:31:27;101231.59;;;5.72;77.37
56420;BME280;42323;52.170;7.538;2023-02-01T08:33:57;101210.78;;;5.72;76.86
56420;BME280;42323;52.170;7.538;2023-02-01T08:36:25;101233.66;;;5.78;76.29
56420;BME280;42323;52.170;7.538;2023-02-01T08:38:52;101231.06;;;5.78;76.87
56420;BME280;42323;52.170;7.538;2023-02-01T08:41:22;101232.75;;;5.79;76.86
56420;BME280;42323;52.170;7.538;2023-02-01T08:43:49;101224.50;;;5.74;76.29
56420;BME280;42323;52.170;7.538;2023-02-01T08:46:16;101211.66;;;5.83;75.87
56420;BME280;42323;52.170;7.538;2023-02-01T08:48:45;101223.44;;;5.87;75.81
56420;BME280;42323;52.170;7.538;2023-02-01T08:51:13;101233.44;;;5.91;75.35
56420;BME280;42323;52.170;7.538;2023-02-01T08:53:41;101230.84;;;5.91;75.73
56420;BME280;42323;52.170;7.538;2023-02-01T08:56:10;101234.03;;;5.95;75.31
56420;BME280;42323;52.170;7.538;2023-02-01T08:58:37;101237.06;;;6.00;75.16
56420;BME280;42323;52.170;7.538;2023-02-01T09:01:06;101227.94;;;6.06;75.35
56420;BME280;42323;52.170;7.538;2023-02-01T09:03:33;101219.75;;;6.10;74.64
56420;BME280;42323;52.170;7.538;2023-02-01T09:06:05;101239.78;;;6.29;74.32
56420;BME280;42323;52.170;7.538;2023-02-01T09:08:32;101221.16;;;6.34;73.71
56420;BME280;42323;52.170;7.538;2023-02-01T09:11:06;101235.03;;;6.44;74.00
56420;BME280;42323;52.170;7.538;2023-02-01T09:13:34;101219.53;;;6.42;73.78
56420;BME280;42323;52.170;7.538;2023-02-01T09:16:02;101209.41;;;6.39;74.33
56420;BME280;42323;52.170;7.538;2023-02-01T09:18:29;101204.31;;;6.38;74.32
56420;BME280;42323;52.170;7.538;2023-02-01T09:20:56;101216.81;;;6.44;73.62
56420;BME280;42323;52.170;7.538;2023-02-01T09:23:22;101206.94;;;6.47;73.55
56420;BME280;42323;52.170;7.538;2023-02-01T09:25:49;101197.78;;;6.43;73.78
56420;BME280;42323;52.170;7.538;2023-02-01T09:28:18;101195.84;;;6.45;73.95
56420;BME280;42323;52.170;7.538;2023-02-01T09:30:45;101188.44;;;6.50;73.12
56420;BME280;42323;52.170;7.538;2023-02-01T09:33:11;101172.72;;;6.52;72.62
56420;BME280;42323;52.170;7.538;2023-02-01T09:35:38;101167.78;;;6.59;72.92
56420;BME280;42323;52.170;7.538;2023-02-01T09:38:04;101158.44;;;6.56;73.00
56420;BME280;42323;52.170;7.538;2023-02-01T09:40:33;101179.28;;;6.56;73.19
56420;BME280;42323;52.170;7.538;2023-02-01T09:46:24;101163.66;;;6.46;74.08
56420;BME280;42323;52.170;7.538;2023-02-01T09:48:58;101168.34;;;6.52;73.97
56420;BME280;42323;52.170;7.538;2023-02-01T09:51:36;101168.59;;;6.49;73.43
56420;BME280;42323;52.170;7.538;2023-02-01T09:54:08;101166.53;;;6.53;74.01
56420;BME280;42323;52.170;7.538;2023-02-01T09:56:41;101163.13;;;6.52;73.39
56420;BME280;42323;52.170;7.538;2023-02-01T09:59:46;101183.81;;;6.64;72.94
56420;BME280;42323;52.170;7.538;2023-02-01T10:02:20;101178.03;;;6.60;73.76
56420;BME280;42323;52.170;7.538;2023-02-01T10:04:48;101203.53;;;6.76;73.17
56420;BME280;42323;52.170;7.538;2023-02-01T10:07:44;101174.63;;;6.79;72.12
56420;BME280;42323;52.170;7.538;2023-02-01T10:10:28;101171.63;;;6.84;73.00
56420;BME280;42323;52.170;7.538;2023-02-01T10:15:49;101183.13;;;6.81;72.62
56420;BME280;42323;52.170;7.538;2023-02-01T10:18:44;101180.38;;;6.73;73.33
56420;BME280;42323;52.170;7.538;2023-02-01T10:24:15;101191.59;;;6.73;73.19
56420;BME280;42323;52.170;7.538;2023-02-01T10:27:11;101172.81;;;6.60;73.82
56420;BME280;42323;52.170;7.538;2023-02-01T10:29:41;101168.47;;;6.70;73.19
56420;BME280;42323;52.170;7.538;2023-02-01T10:32:20;101176.13;;;6.82;73.46
56420;BME280;42323;52.170;7.538;2023-02-01T10:34:52;101162.56;;;6.88;72.38
56420;BME280;42323;52.170;7.538;2023-02-01T10:37:31;101157.78;;;6.83;73.29
56420;BME280;42323;52.170;7.538;2023-02-01T10:40:20;101139.66;;;6.82;72.96
56420;BME280;42323;52.170;7.538;2023-02-01T10:42:59;101140.47;;;6.82;73.22
56420;BME280;42323;52.170;7.538;2023-02-01T10:45:29;101144.19;;;6.79;72.85
56420;BME280;42323;52.170;7.538;2023-02-01T10:47:57;101149.56;;;6.78;73.67
56420;BME280;42323;52.170;7.538;2023-02-01T10:50:41;101137.34;;;6.69;73.63
56420;BME280;42323;52.170;7.538;2023-02-01T10:55:50;101137.91;;;6.53;74.54
56420;BME280;42323;52.170;7.538;2023-02-01T10:58:27;101129.81;;;6.46;74.17
56420;BME280;42323;52.170;7.538;2023-02-01T11:01:06;101149.28;;;6.52;74.47
56420;BME280;42323;52.170;7.538;2023-02-01T11:03:42;101125.28;;;6.39;75.58
56420;BME280;42323;52.170;7.538;2023-02-01T11:06:26;101120.22;;;6.27;76.48
56420;BME280;42323;52.170;7.538;2023-02-01T11:08:56;101109.09;;;6.06;77.86
56420;BME280;42323;52.170;7.538;2023-02-01T11:11:24;101112.09;;;5.92;79.94
56420;BME280;42323;52.170;7.538;2023-02-01T11:13:57;101105.28;;;5.70;80.88
56420;BME280;42323;52.170;7.538;2023-02-01T11:16:36;101135.47;;;5.51;83.67
56420;BME280;42323;52.170;7.538;2023-02-01T11:19:03;101140.84;;;5.29;85.57
56420;BME280;42323;52.170;7.538;2023-02-01T11:21:32;101127.19;;;5.06;86.95
56420;BME280;42323;52.170;7.538;2023-02-01T11:24:03;101137.56;;;5.06;87.40
56420;BME280;42323;52.170;7.538;2023-02-01T11:26:31;101113.00;;;4.89;88.18
56420;BME280;42323;52.170;7.538;2023-02-01T11:29:03;101126.41;;;4.94;89.53
56420;BME280;42323;52.170;7.538;2023-02-01T11:31:30;101103.06;;;4.73;90.27
56420;BME280;42323;52.170;7.538;2023-02-01T11:34:14;101125.03;;;4.90;91.03
56420;BME280;42323;52.170;7.538;2023-02-01T11:36:42;101110.97;;;4.93;89.83
56420;BME280;42323;52.170;7.538;2023-02-01T11:44:36;101097.22;;;4.81;91.80
56420;BME280;42323;52.170;7.538;2023-02-01T11:47:22;101098.19;;;4.80;91.13
56420;BME280;42323;52.170;7.538;2023-02-01T11:49:51;101094.63;;;4.81;92.59
56420;BME280;42323;52.170;7.538;2023-02-01T11:57:34;101106.41;;;4.85;92.64
56420;BME280;42323;52.170;7.538;2023-02-01T12:03:06;101086.13;;;4.79;93.83
56420;BME280;42323;52.170;7.538;2023-02-01T12:05:54;101083.53;;;4.79;94.39
56420;BME280;42323;52.170;7.538;2023-02-01T12:11:29;101053.69;;;4.85;93.91
56420;BME280;42323;52.170;7.538;2023-02-01T12:17:01;101081.59;;;4.92;93.88
56420;BME280;42323;52.170;7.538;2023-02-01T12:19:53;101051.09;;;4.85;93.57
56420;BME280;42323;52.170;7.538;2023-02-01T12:22:44;101064.28;;;5.02;92.64
56420;BME280;42323;52.170;7.538;2023-02-01T12:30:48;101016.97;;;4.99;92.96
56420;BME280;42323;52.170;7.538;2023-02-01T12:36:18;101024.19;;;5.26;92.54
56420;BME280;42323;52.170;7.538;2023-02-01T12:38:57;101021.75;;;5.34;92.22
56420;BME280;42323;52.170;7.538;2023-02-01T12:41:45;101033.25;;;5.32;92.40
56420;BME280;42323;52.170;7.538;2023-02-01T12:44:27;101042.69;;;5.33;92.71
56420;BME280;42323;52.170;7.538;2023-02-01T12:47:03;101024.75;;;5.29;91.47
56420;BME280;42323;52.170;7.538;2023-02-01T12:49:37;101042.25;;;5.27;92.56
56420;BME280;42323;52.170;7.538;2023-02-01T12:52:11;101040.22;;;5.31;92.39
56420;BME280;42323;52.170;7.538;2023-02-01T12:54:55;101021.59;;;5.26;92.19
56420;BME280;42323;52.170;7.538;2023-02-01T12:57:54;101039.84;;;5.45;92.42
56420;BME280;42323;52.170;7.538;2023-02-01T13:06:04;101009.75;;;5.43;91.07
56420;BME280;42323;52.170;7.538;2023-02-01T13:08:47;101020.84;;;5.54;90.40
56420;BME280;42323;52.170;7.538;2023-02-01T13:11:29;101025.59;;;5.99;88.44
56420;BME280;42323;52.170;7.538;2023-02-01T13:16:51;101012.25;;;5.73;89.43
56420;BME280;42323;52.170;7.538;2023-02-01T13:19:40;101022.09;;;5.60;90.03
56420;BME280;42323;52.170;7.538;2023-02-01T13:22:14;101015.50;;;5.46;91.09
56420;BME280;42323;52.170;7.538;2023-02-01T13:24:47;101012.47;;;5.32;92.18
56420;BME280;42323;52.170;7.538;2023-02-01T13:27:16;101011.19;;;5.26;92.37
56420;BME280;42323;52.170;7.538;2023-02-01T13:32:43;101017.53;;;5.33;92.20
56420;BME280;42323;52.170;7.538;2023-02-01T13:38:30;101005.19;;;5.35;92.21
56420;BME280;42323;52.170;7.538;2023-02-01T13:43:39;101002.91;;;5.32;91.67
56420;BME280;42323;52.170;7.538;2023-02-01T13:46:10;100988.38;;;5.29;91.69
56420;BME280;42323;52.170;7.538;2023-02-01T13:48:56;101036.66;;;5.32;92.70
56420;BME280;42323;52.170;7.538;2023-02-01T13:51:34;101029.28;;;5.37;92.46
56420;BME280;42323;52.170;7.538;2023-02-01T13:54:03;101016.84;;;5.31;93.06
56420;BME280;42323;52.170;7.538;2023-02-01T13:56:40;101042.66;;;5.23;94.06
56420;BME280;42323;52.170;7.538;2023-02-01T14:05:10;101094.44;;;5.15;96.31
56420;BME280;42323;52.170;7.538;2023-02-01T14:10:56;101076.22;;;4.63;93.09
56420;BME280;42323;52.170;7.538;2023-02-01T14:28:51;101104.75;;;4.10;95.78
56420;BME280;42323;52.170;7.538;2023-02-01T14:31:42;101085.22;;;4.27;96.86
56420;BME280;42323;52.170;7.538;2023-02-01T14:36:46;101107.09;;;4.45;98.29
56420;BME280;42323;52.170;7.538;2023-02-01T14:47:50;101095.25;;;4.94;98.91
56420;BME280;42323;52.170;7.538;2023-02-01T15:03:47;101115.31;;;5.13;96.21
56420;BME280;42323;52.170;7.538;2023-02-01T15:08:57;101116.06;;;5.25;95.08
56420;BME280;42323;52.170;7.538;2023-02-01T15:11:25;101109.09;;;5.25;94.20
56420;BME280;42323;52.170;7.538;2023-02-01T15:13:53;101135.63;;;5.29;93.72
56420;BME280;42323;52.170;7.538;2023-02-01T15:16:29;101127.44;;;5.34;93.74
56420;BME280;42323;52.170;7.538;2023-02-01T15:19:10;101118.44;;;5.38;93.93
56420;BME280;42323;52.170;7.538;2023-02-01T15:21:45;101115.59;;;5.41;90.67
56420;BME280;42323;52.170;7.538;2023-02-01T15:24:34;101130.75;;;5.36;90.23
56420;BME280;42323;52.170;7.538;2023-02-01T15:27:05;101113.59;;;5.23;89.96
56420;BME280;42323;52.170;7.538;2023-02-01T15:29:32;101098.69;;;5.25;90.60
56420;BME280;42323;52.170;7.538;2023-02-01T15:31:59;101107.06;;;5.29;91.05
56420;BME280;42323;52.170;7.538;2023-02-01T15:34:49;101123.47;;;5.29;90.49
56420;BME280;42323;52.170;7.538;2023-02-01T15:37:16;101141.78;;;5.28;91.57
56420;BME280;42323;52.170;7.538;2023-02-01T15:42:31;101135.00;;;5.37;89.22
56420;BME280;42323;52.170;7.538;2023-02-01T15:44:57;101131.41;;;5.28;90.59
56420;BME280;42323;52.170;7.538;2023-02-01T15:47:26;101150.69;;;5.35;90.84